Terminal Aerodrome Forecast
Issued by NWS

Home | Current Version | Previous Version | Text Only | Print | Product List | Glossary On
Versions: 1 2 3 4 5 6 7 8 9 10 11 12
779
FTUS42 TJSJ 042342
TAFKPK
TAF
TKPK 042342Z 0500/0524 00000KT P6SM FEW020
     FM051300 05010KT P6SM FEW020
     FM052300 06006KT P6SM FEW020
      AMD NOT SKED 0502/0511=

USA.gov is the U.S. government's official web portal to all federal, state and local government web resources and services.